events-overview

Kinetic Half

 

Relays

Lake Anna State Park - Spotsylvania, VA 5/14/2011 07:00AM

** Results are for the private use of participants and are the Intellectual Property of Set Up Events. Unauthorized use of these results is prohibited.

Place T Bib Team Rank SWIM Rank T1 Rank BIKE Rank T2 Rank RUN PENALTY TIME DQ
1X669GIMPY JELLYFISH HUNTER100:28:16400:01:25402:39:011300:00:39801:44:40 04:53:59 
2X695THREE DUDES TRYING200:28:201400:01:38302:38:001700:00:411201:50:22 04:58:59 
3X22TEAM LE DEM2200:41:343600:02:44102:31:542300:00:45601:43:32 05:00:26 
4X668GETTIN' OLDER500:30:191000:01:311002:44:40900:00:38701:43:48 05:00:54 
5X681RUN DMC300:29:14600:01:28202:35:33400:00:361901:55:50 05:02:39 
6X661BETA TO ONE700:32:391900:01:422403:06:18200:00:33101:24:39 05:05:48 
7X250LABERDOODLE2000:41:17300:01:24502:40:021100:00:391001:46:59 05:10:20 
8X670GO1400:37:381700:01:40802:41:44800:00:381601:53:10 05:14:48 
9X697WE'LL GIVE IT A TRI600:30:513700:03:061802:59:401000:00:38501:42:19 05:16:32 
10X664DOS ZERS1800:41:034000:05:24902:43:45600:00:381101:49:32 05:20:20 
11X694THE STICKY BANDITS1000:35:46900:01:301402:49:212500:00:452001:57:10 05:24:32 
12X684TEAM DOMINATION900:34:39200:01:201202:48:081800:00:412101:59:49 05:24:36 
13X692THE BIG EZ1900:41:06100:01:14602:41:25300:00:342302:01:02 05:25:18 
14X696TRI4FUN3600:49:051600:01:38702:41:311900:00:431501:52:56 05:25:51 
15X660BEST OF 50S, 60S AND 70S1200:36:141100:01:312303:06:162400:00:45401:41:54 05:26:38 
16X680******* REJECTS2400:42:331300:01:371102:46:412800:00:521401:52:3300:04:0005:28:15 
17X677NO WORRIES1100:36:113000:01:572003:02:513400:01:03901:46:37 05:28:37 
18X672HIGH CLOUD #1400:29:251500:01:382203:05:333600:01:361801:55:36 05:33:46 
19X675KICK ON!1500:37:522500:01:482103:04:563100:01:001701:53:29 05:39:02 
20X693THE FAST AND THE DELIRIOU3400:47:552300:01:451502:50:261600:00:412402:02:01 05:42:46 
21X679OREO2300:42:223500:02:163203:19:34700:00:38301:39:30 05:44:18 
22X678O'MARA AND K-GO1600:38:052000:01:441302:48:491500:00:412802:15:55 05:45:11 
23X690TEAM Z HALF TRIO1700:39:531200:01:332803:14:162000:00:432202:00:39 05:57:01 
24X683TEAM AWESOME2500:43:13500:01:261903:00:571400:00:413002:17:27 06:03:43 
25X698Z EXPRESS3700:51:203200:02:033003:16:453900:04:391301:51:57 06:06:43 
26X691TEAM ZEN3200:46:562900:01:561602:55:36500:00:383202:23:17 06:08:22 
27X682SOXY LOG SISTERS2100:41:282600:01:502903:16:392200:00:452602:10:12 06:10:51 
28X666FAT, DRUNK, AND STUPID IS3900:52:532400:01:483803:39:46100:00:30201:37:27 06:12:23 
29X97LAST MINUTE LADIEZ3000:46:341800:01:402703:12:241200:00:393302:24:14 06:25:30 
30X688TEAM Z - WE TRI2800:45:442700:01:552503:08:573000:00:563602:29:57 06:27:26 
PlaceTBibTeamRankSWIMRankT1RankBIKERankT2RankRUNPENALTYTIMEDQ
31X671GREEN MACHINE800:32:42700:01:302603:09:383200:01:013802:44:39 06:29:29 
32X667FEMMES IN MOTION3500:48:223400:02:103303:20:423300:01:023102:19:01 06:31:16 
33X674KDK TRICHICAS4100:59:222100:01:443103:19:032100:00:442702:10:44 06:31:35 
34X686TEAM RODANTHE3300:47:282800:01:553703:37:082900:00:542502:09:46 06:37:09 
35X665EQUIPO QUILOMBO3100:46:37800:01:301702:58:082600:00:483902:53:52 06:40:53 
36X699ZULETA2900:46:032200:01:453903:42:393700:02:492902:16:04 06:49:18 
37X477TEAM SOD2600:43:593800:04:303503:32:522700:00:503502:27:40 06:49:49 
38X673K&E EXPRESS1300:37:373100:02:023603:34:213800:03:103702:35:45 06:52:53 
39X689TEAM Z GOLDEN GIRLS3800:51:213300:02:09    3402:26:03 07:28:13Y
40X229TWO BAD*** Z'S2700:45:234100:06:073403:25:583500:01:16 DNF DNF 
41X663COOL LADIEZ4000:52:553900:05:12       DNF 

** Results are for the private use of participants and are the Intellectual Property of Set Up Events. Unauthorized use of these results is prohibited.